createdAt,value
2024-01-19T00:00:57.849Z,0.00
2024-01-19T00:01:57.150Z,0.00
2024-01-19T00:02:56.661Z,0.00
2024-01-19T00:03:56.969Z,0.00
2024-01-19T00:04:56.469Z,0.00
2024-01-19T00:05:56.936Z,0.00
2024-01-19T00:06:56.181Z,0.00
2024-01-19T00:07:56.720Z,0.00
2024-01-19T00:08:55.996Z,0.00
2024-01-19T00:09:57.340Z,0.00
2024-01-19T00:10:56.788Z,0.00
2024-01-19T00:11:56.223Z,0.00
2024-01-19T00:12:57.515Z,0.00
2024-01-19T00:13:56.879Z,0.00
2024-01-19T00:14:55.816Z,0.00
2024-01-19T00:15:56.209Z,0.00
2024-01-19T00:16:57.633Z,0.00
2024-01-19T00:17:56.818Z,0.00
2024-01-19T00:18:55.992Z,0.00
2024-01-19T00:19:56.366Z,0.00
2024-01-19T00:20:56.670Z,0.00
2024-01-19T00:21:56.125Z,0.00
2024-01-19T00:22:56.542Z,0.00
2024-01-19T00:23:56.866Z,0.00
2024-01-19T00:24:56.278Z,0.00
2024-01-19T00:25:56.550Z,0.00
2024-01-19T00:26:56.045Z,0.00
2024-01-19T00:27:57.320Z,0.00
2024-01-19T00:28:55.685Z,0.00
2024-01-19T00:29:56.111Z,0.00
2024-01-19T00:30:56.497Z,0.00
2024-01-19T00:31:56.813Z,0.00
2024-01-19T00:32:56.338Z,0.00
2024-01-19T00:33:57.556Z,0.00
2024-01-19T00:34:56.980Z,0.00
2024-01-19T00:35:56.400Z,0.00
2024-01-19T00:36:55.752Z,0.00
2024-01-19T00:37:56.173Z,0.00
2024-01-19T00:38:56.618Z,0.00
2024-01-19T00:39:56.850Z,0.00
2024-01-19T00:40:57.284Z,0.00
2024-01-19T00:41:56.734Z,0.00
2024-01-19T00:42:56.224Z,0.00
2024-01-19T00:43:57.524Z,0.00
2024-01-19T00:44:56.984Z,0.00
2024-01-19T00:45:57.199Z,0.00
2024-01-19T00:46:55.612Z,0.00
2024-01-19T00:47:56.103Z,0.00
2024-01-19T00:48:56.422Z,0.00
2024-01-19T00:49:56.738Z,0.00
2024-01-19T00:50:56.305Z,0.00
2024-01-19T00:51:56.495Z,0.00
2024-01-19T00:52:55.974Z,0.00
2024-01-19T00:53:56.274Z,0.00
2024-01-19T00:54:55.725Z,0.00
2024-01-19T00:55:56.104Z,0.00
2024-01-19T00:56:56.743Z,0.00
2024-01-19T00:57:56.833Z,0.00
2024-01-19T00:58:55.225Z,0.00
2024-01-19T00:59:55.664Z,0.00
2024-01-19T01:00:56.108Z,0.00
2024-01-19T01:01:55.411Z,0.00
2024-01-19T01:02:56.198Z,0.00
2024-01-19T01:03:55.227Z,0.00
2024-01-19T01:04:55.618Z,0.00
2024-01-19T01:05:56.083Z,0.00
2024-01-19T01:06:55.404Z,0.00
2024-01-19T01:07:55.825Z,0.00
2024-01-19T01:08:55.421Z,0.00
2024-01-19T01:09:55.582Z,0.00
2024-01-19T01:10:55.849Z,0.00
2024-01-19T01:11:55.413Z,0.00
2024-01-19T01:12:55.833Z,0.00
2024-01-19T01:13:55.207Z,0.00
2024-01-19T01:14:56.649Z,0.00
2024-01-19T01:15:55.904Z,0.00
2024-01-19T01:16:56.380Z,0.00
2024-01-19T01:17:55.918Z,0.00
2024-01-19T01:18:55.298Z,0.00
2024-01-19T01:19:55.653Z,0.00
2024-01-19T01:20:56.035Z,0.00
2024-01-19T01:21:56.400Z,0.00
2024-01-19T01:22:54.802Z,0.00
2024-01-19T01:23:55.424Z,0.00
2024-01-19T01:24:56.645Z,0.00
2024-01-19T01:25:55.033Z,0.00
2024-01-19T01:26:55.504Z,0.00
2024-01-19T01:27:54.859Z,0.00
2024-01-19T01:28:56.276Z,0.00
2024-01-19T01:29:56.645Z,0.00
2024-01-19T01:30:55.069Z,0.00
2024-01-19T01:31:56.391Z,0.00
2024-01-19T01:32:54.934Z,0.00
2024-01-19T01:33:55.345Z,0.00
2024-01-19T01:34:55.685Z,0.00
2024-01-19T01:35:55.116Z,0.00
2024-01-19T01:36:55.417Z,0.00
2024-01-19T01:37:54.783Z,0.00
2024-01-19T01:38:55.289Z,0.00
2024-01-19T01:39:55.638Z,0.00
2024-01-19T01:40:54.989Z,0.00
2024-01-19T01:41:55.526Z,0.00
2024-01-19T01:42:54.782Z,0.00
2024-01-19T01:43:55.313Z,0.00
2024-01-19T01:44:54.673Z,0.00
2024-01-19T01:45:55.044Z,0.00
2024-01-19T01:46:55.475Z,0.00
2024-01-19T01:47:54.945Z,0.00
2024-01-19T01:48:55.458Z,0.00
2024-01-19T01:49:54.750Z,0.00
2024-01-19T01:50:55.219Z,0.00
2024-01-19T01:51:54.518Z,0.00
2024-01-19T01:52:54.925Z,0.00
2024-01-19T01:53:54.616Z,0.00
2024-01-19T01:54:55.085Z,0.00
2024-01-19T01:55:55.330Z,0.00
2024-01-19T01:56:55.785Z,0.00
2024-01-19T01:57:56.006Z,0.00
2024-01-19T01:58:54.524Z,0.00
2024-01-19T01:59:54.924Z,0.00
2024-01-19T02:00:55.419Z,0.00
2024-01-19T02:01:54.471Z,0.00
2024-01-19T02:02:54.914Z,0.00
2024-01-19T02:03:55.308Z,0.00
2024-01-19T02:04:54.665Z,0.00
2024-01-19T02:05:55.284Z,0.00
2024-01-19T02:06:54.661Z,0.00
2024-01-19T02:07:55.058Z,0.00
2024-01-19T02:08:55.265Z,0.00
2024-01-19T02:09:54.668Z,0.00
2024-01-19T02:10:55.042Z,0.00
2024-01-19T02:11:54.504Z,0.00
2024-01-19T02:12:54.945Z,0.00
2024-01-19T02:13:55.234Z,0.00
2024-01-19T02:14:54.559Z,0.00
2024-01-19T02:15:54.977Z,0.00
2024-01-19T02:16:54.345Z,0.00
2024-01-19T02:17:54.843Z,0.00
2024-01-19T02:18:54.275Z,0.00
2024-01-19T02:19:54.518Z,0.00
2024-01-19T02:20:55.019Z,0.00
2024-01-19T02:21:54.242Z,0.00
2024-01-19T02:22:54.689Z,0.00
2024-01-19T02:23:54.075Z,0.00
2024-01-19T02:24:54.481Z,0.00
2024-01-19T02:25:54.902Z,0.00
2024-01-19T02:26:54.397Z,0.00
2024-01-19T02:27:54.644Z,0.00
2024-01-19T02:28:54.053Z,0.00
2024-01-19T02:29:54.501Z,0.00
2024-01-19T02:30:54.958Z,0.00
2024-01-19T02:31:54.304Z,0.00
2024-01-19T02:32:54.684Z,0.00
2024-01-19T02:33:54.009Z,0.00
2024-01-19T02:34:54.410Z,0.00
2024-01-19T02:35:54.884Z,0.00
2024-01-19T02:36:54.186Z,0.00
2024-01-19T02:37:54.557Z,0.00
2024-01-19T02:38:53.968Z,0.00
2024-01-19T02:39:54.444Z,0.00
2024-01-19T02:40:54.800Z,0.00
2024-01-19T02:41:54.271Z,0.00
2024-01-19T02:42:54.639Z,0.00
2024-01-19T02:43:54.019Z,0.00
2024-01-19T02:44:54.564Z,0.00
2024-01-19T02:45:53.823Z,0.00
2024-01-19T02:46:54.271Z,0.00
2024-01-19T02:47:54.771Z,0.00
2024-01-19T02:48:54.141Z,0.00
2024-01-19T02:49:54.496Z,0.00
2024-01-19T02:50:53.913Z,0.00
2024-01-19T02:51:54.378Z,0.00
2024-01-19T02:52:53.709Z,0.00
2024-01-19T02:53:54.206Z,0.00
2024-01-19T02:54:54.644Z,0.00
2024-01-19T02:55:53.951Z,0.00
2024-01-19T02:56:54.403Z,0.00
2024-01-19T02:57:53.846Z,0.00
2024-01-19T02:58:54.146Z,0.00
2024-01-19T02:59:54.699Z,0.00
2024-01-19T03:00:53.988Z,0.00
2024-01-19T03:01:54.366Z,0.00
2024-01-19T03:02:53.778Z,0.00
2024-01-19T03:03:54.265Z,0.00
2024-01-19T03:04:53.625Z,0.00
2024-01-19T03:05:54.091Z,0.00
2024-01-19T03:06:54.443Z,0.00
2024-01-19T03:07:53.824Z,0.00
2024-01-19T03:08:54.369Z,0.00
2024-01-19T03:09:53.681Z,0.00
2024-01-19T03:10:54.125Z,0.00
2024-01-19T03:11:53.549Z,0.00
2024-01-19T03:12:53.947Z,0.00
2024-01-19T03:13:54.414Z,0.00
2024-01-19T03:14:53.840Z,0.00
2024-01-19T03:15:54.191Z,0.00
2024-01-19T03:16:53.597Z,0.00
2024-01-19T03:17:54.135Z,0.00
2024-01-19T03:18:53.409Z,0.00
2024-01-19T03:19:53.911Z,0.00
2024-01-19T03:20:54.423Z,0.00
2024-01-19T03:21:53.623Z,0.00
2024-01-19T03:22:54.070Z,0.00
2024-01-19T03:23:53.530Z,0.00
2024-01-19T03:24:53.905Z,0.00
2024-01-19T03:25:53.271Z,0.00
2024-01-19T03:26:53.760Z,0.00
2024-01-19T03:27:54.103Z,0.00
2024-01-19T03:28:53.592Z,0.00
2024-01-19T03:29:54.058Z,0.00
2024-01-19T03:30:53.457Z,0.00
2024-01-19T03:31:53.777Z,0.00
2024-01-19T03:32:53.315Z,0.00
2024-01-19T03:33:55.744Z,0.00
2024-01-19T03:34:54.033Z,0.00
2024-01-19T03:35:53.789Z,0.00
2024-01-19T03:36:53.867Z,0.00
2024-01-19T03:37:53.290Z,0.00
2024-01-19T03:38:53.729Z,0.00
2024-01-19T03:39:53.060Z,0.00
2024-01-19T03:40:53.490Z,0.00
2024-01-19T03:41:54.116Z,0.00
2024-01-19T03:42:53.300Z,0.00
2024-01-19T03:43:53.725Z,0.00
2024-01-19T03:44:53.256Z,0.00
2024-01-19T03:45:53.563Z,0.00
2024-01-19T03:46:52.984Z,0.00
2024-01-19T03:47:53.554Z,0.00
2024-01-19T03:48:53.833Z,0.00
2024-01-19T03:49:53.251Z,0.00
2024-01-19T03:50:53.739Z,0.00
2024-01-19T03:51:53.095Z,0.00
2024-01-19T03:52:54.313Z,0.00
2024-01-19T03:53:53.001Z,0.00
2024-01-19T03:54:53.356Z,0.00
2024-01-19T03:55:53.812Z,0.00
2024-01-19T03:56:53.245Z,0.00
2024-01-19T03:57:53.610Z,0.00
2024-01-19T03:58:53.190Z,0.00
2024-01-19T03:59:53.429Z,0.00
2024-01-19T04:00:52.812Z,0.00
2024-01-19T04:01:53.271Z,0.00
2024-01-19T04:02:53.840Z,0.00
2024-01-19T04:03:53.161Z,0.00
2024-01-19T04:04:53.722Z,0.00
2024-01-19T04:05:52.890Z,0.00
2024-01-19T04:06:53.313Z,0.00
2024-01-19T04:07:53.689Z,0.00
2024-01-19T04:08:53.099Z,0.00
2024-01-19T04:09:53.520Z,0.00
2024-01-19T04:10:52.905Z,0.00
2024-01-19T04:11:53.386Z,0.00
2024-01-19T04:12:52.739Z,0.00
2024-01-19T04:13:53.116Z,0.00
2024-01-19T04:14:53.589Z,0.00
2024-01-19T04:15:52.936Z,0.00
2024-01-19T04:16:53.370Z,0.00
2024-01-19T04:17:52.834Z,0.00
2024-01-19T04:18:53.280Z,0.00
2024-01-19T04:19:53.619Z,0.00
2024-01-19T04:20:53.030Z,0.00
2024-01-19T04:21:53.450Z,0.00
2024-01-19T04:22:52.803Z,0.00
2024-01-19T04:23:53.318Z,0.00
2024-01-19T04:24:52.628Z,0.00
2024-01-19T04:25:53.113Z,0.00
2024-01-19T04:26:53.634Z,0.00
2024-01-19T04:27:52.968Z,0.00
2024-01-19T04:28:53.405Z,0.00
2024-01-19T04:29:52.853Z,0.00
2024-01-19T04:30:53.277Z,0.00
2024-01-19T04:31:52.677Z,0.00
2024-01-19T04:32:53.128Z,0.00
2024-01-19T04:33:53.846Z,0.00
2024-01-19T04:34:52.939Z,0.00
2024-01-19T04:35:52.453Z,0.00
2024-01-19T04:36:52.954Z,0.00
2024-01-19T04:37:52.286Z,0.00
2024-01-19T04:38:52.973Z,0.00
2024-01-19T04:39:53.210Z,0.00
2024-01-19T04:40:52.654Z,0.00
2024-01-19T04:41:53.164Z,0.00
2024-01-19T04:42:52.551Z,0.00
2024-01-19T04:43:52.945Z,0.00
2024-01-19T04:44:52.703Z,0.00
2024-01-19T04:45:52.853Z,0.00
2024-01-19T04:46:52.332Z,0.00
2024-01-19T04:47:52.938Z,0.00
2024-01-19T04:48:53.355Z,0.00
2024-01-19T04:49:52.616Z,0.00
2024-01-19T04:50:52.298Z,0.00
2024-01-19T04:51:52.744Z,0.00
2024-01-19T04:52:52.157Z,0.00
2024-01-19T04:53:52.672Z,0.00
2024-01-19T04:54:53.052Z,0.00
2024-01-19T04:55:52.530Z,0.00
2024-01-19T04:56:53.093Z,0.00
2024-01-19T04:57:52.397Z,0.00
2024-01-19T04:58:52.813Z,0.00
2024-01-19T04:59:52.265Z,0.00
2024-01-19T05:00:52.723Z,0.00
2024-01-19T05:01:52.100Z,0.00
2024-01-19T05:02:52.636Z,0.00
2024-01-19T05:03:52.037Z,0.00
2024-01-19T05:04:52.594Z,0.00
2024-01-19T05:05:52.950Z,0.00
2024-01-19T05:06:52.308Z,0.00
2024-01-19T05:07:52.788Z,0.00
2024-01-19T05:08:52.202Z,0.00
2024-01-19T05:09:52.674Z,0.00
2024-01-19T05:10:52.631Z,0.00
2024-01-19T05:11:52.597Z,0.00
2024-01-19T05:12:51.968Z,0.00
2024-01-19T05:13:52.460Z,0.00
2024-01-19T05:14:51.928Z,0.00
2024-01-19T05:15:52.383Z,0.00
2024-01-19T05:16:52.847Z,0.00
2024-01-19T05:17:52.274Z,0.00
2024-01-19T05:18:52.724Z,0.00
2024-01-19T05:19:52.237Z,0.00
2024-01-19T05:20:52.648Z,0.00
2024-01-19T05:21:52.043Z,0.00
2024-01-19T05:22:52.507Z,0.00
2024-01-19T05:23:51.969Z,0.00
2024-01-19T05:24:52.394Z,0.00
2024-01-19T05:25:51.777Z,0.00
2024-01-19T05:26:52.309Z,0.00
2024-01-19T05:27:51.710Z,0.00
2024-01-19T05:28:52.140Z,0.00
2024-01-19T05:29:52.606Z,0.00
2024-01-19T05:30:51.986Z,0.00
2024-01-19T05:31:52.472Z,0.00
2024-01-19T05:32:51.962Z,0.00
2024-01-19T05:33:52.430Z,0.00
2024-01-19T05:34:51.711Z,0.00
2024-01-19T05:35:52.180Z,0.00
2024-01-19T05:36:51.690Z,0.00
2024-01-19T05:37:52.096Z,0.00
2024-01-19T05:38:52.633Z,0.00
2024-01-19T05:39:51.936Z,0.00
2024-01-19T05:40:52.429Z,0.00
2024-01-19T05:41:51.840Z,0.00
2024-01-19T05:42:52.223Z,0.00
2024-01-19T05:43:51.633Z,0.00
2024-01-19T05:44:52.110Z,0.00
2024-01-19T05:45:51.442Z,0.00
2024-01-19T05:46:51.891Z,0.00
2024-01-19T05:47:52.511Z,0.00
2024-01-19T05:48:51.721Z,0.00
2024-01-19T05:49:52.215Z,0.00
2024-01-19T05:50:51.594Z,0.00
2024-01-19T05:51:51.982Z,0.00
2024-01-19T05:52:51.373Z,0.00
2024-01-19T05:53:51.858Z,0.00
2024-01-19T05:54:52.337Z,0.00
2024-01-19T05:55:51.687Z,0.00
2024-01-19T05:56:52.163Z,0.00
2024-01-19T05:57:51.550Z,0.00
2024-01-19T05:58:52.140Z,0.00
2024-01-19T05:59:52.543Z,0.00
2024-01-19T06:00:52.032Z,0.00
2024-01-19T06:01:51.264Z,0.00
2024-01-19T06:02:51.777Z,0.00
2024-01-19T06:03:52.241Z,0.00
2024-01-19T06:04:51.633Z,0.00
2024-01-19T06:05:52.240Z,0.00
2024-01-19T06:06:51.616Z,0.00
2024-01-19T06:07:52.053Z,0.00
2024-01-19T06:08:51.571Z,0.00
2024-01-19T06:09:51.408Z,0.00
2024-01-19T06:10:51.914Z,0.00
2024-01-19T06:11:51.400Z,0.00
2024-01-19T06:12:51.646Z,0.00
2024-01-19T06:13:52.143Z,0.00
2024-01-19T06:14:51.651Z,0.00
2024-01-19T06:15:52.032Z,0.00
2024-01-19T06:16:51.418Z,0.00
2024-01-19T06:17:51.986Z,0.00
2024-01-19T06:18:51.542Z,0.00
2024-01-19T06:19:51.882Z,0.00
2024-01-19T06:20:51.363Z,0.00
2024-01-19T06:21:51.700Z,0.00
2024-01-19T06:22:51.089Z,0.00
2024-01-19T06:23:51.631Z,0.00
2024-01-19T06:24:50.961Z,0.00
2024-01-19T06:25:51.486Z,0.00
2024-01-19T06:26:51.893Z,0.00
2024-01-19T06:27:51.381Z,0.00
2024-01-19T06:28:51.890Z,0.00
2024-01-19T06:29:51.397Z,0.00
2024-01-19T06:30:51.798Z,0.00
2024-01-19T06:31:51.071Z,0.00
2024-01-19T06:32:51.646Z,0.00
2024-01-19T06:33:50.994Z,0.00
2024-01-19T06:34:51.424Z,0.00
2024-01-19T06:35:51.923Z,0.00
2024-01-19T06:36:51.278Z,0.00
2024-01-19T06:37:51.609Z,0.00
2024-01-19T06:38:51.131Z,0.00
2024-01-19T06:39:51.574Z,0.00
2024-01-19T06:40:50.923Z,0.00
2024-01-19T06:41:51.601Z,0.00
2024-01-19T06:42:50.807Z,0.00
2024-01-19T06:43:51.240Z,0.00
2024-01-19T06:44:51.650Z,0.00
2024-01-19T06:45:51.037Z,0.00
2024-01-19T06:46:51.503Z,0.00
2024-01-19T06:47:51.030Z,0.00
2024-01-19T06:48:51.651Z,0.00
2024-01-19T06:49:50.841Z,0.00
2024-01-19T06:50:51.213Z,0.00
2024-01-19T06:51:51.794Z,0.00
2024-01-19T06:52:51.124Z,0.00
2024-01-19T06:53:51.545Z,0.00
2024-01-19T06:54:50.969Z,0.00
2024-01-19T06:55:51.344Z,0.00
2024-01-19T06:56:50.799Z,0.00
2024-01-19T06:57:51.195Z,0.00
2024-01-19T06:58:50.590Z,0.00
2024-01-19T06:59:51.063Z,0.00
2024-01-19T07:00:51.529Z,0.00
2024-01-19T07:01:50.907Z,0.00
2024-01-19T07:02:51.430Z,0.00
2024-01-19T07:03:50.736Z,0.00
2024-01-19T07:04:51.087Z,0.00
2024-01-19T07:05:50.504Z,0.00
2024-01-19T07:06:51.095Z,0.00
2024-01-19T07:07:51.299Z,0.00
2024-01-19T07:08:50.762Z,0.00
2024-01-19T07:09:51.147Z,0.00
2024-01-19T07:10:50.661Z,0.00
2024-01-19T07:11:51.009Z,0.00
2024-01-19T07:12:51.436Z,0.00
2024-01-19T07:13:50.927Z,0.00
2024-01-19T07:14:51.326Z,0.00
2024-01-19T07:15:50.652Z,0.00
2024-01-19T07:16:51.127Z,0.00
2024-01-19T07:17:50.826Z,0.00
2024-01-19T07:18:51.075Z,0.00
2024-01-19T07:19:51.441Z,0.00
2024-01-19T07:20:50.786Z,0.00
2024-01-19T07:21:51.220Z,0.00
2024-01-19T07:22:50.599Z,0.00
2024-01-19T07:23:51.044Z,0.00
2024-01-19T07:24:50.421Z,0.00
2024-01-19T07:25:50.846Z,0.00
2024-01-19T07:26:50.222Z,0.00
2024-01-19T07:27:50.660Z,0.00
2024-01-19T07:28:51.072Z,0.00
2024-01-19T07:29:51.000Z,0.00
2024-01-19T07:30:50.958Z,0.00
2024-01-19T07:31:50.442Z,0.00
2024-01-19T07:33:00.499Z,0.00
2024-01-19T07:33:51.278Z,0.00
2024-01-19T07:34:50.750Z,0.00
2024-01-19T07:35:51.175Z,0.00
2024-01-19T07:36:50.430Z,0.00
2024-01-19T07:37:50.947Z,0.00
2024-01-19T07:38:50.270Z,0.00
2024-01-19T07:39:50.774Z,0.00
2024-01-19T07:40:50.118Z,0.00
2024-01-19T07:41:50.609Z,0.00
2024-01-19T07:42:50.936Z,0.00
2024-01-19T07:43:50.351Z,0.00
2024-01-19T07:44:50.875Z,0.00
2024-01-19T07:45:50.178Z,0.00
2024-01-19T07:46:50.584Z,0.00
2024-01-19T07:47:50.042Z,0.00
2024-01-19T07:48:50.757Z,5.62
2024-01-19T07:49:50.846Z,5.62
2024-01-19T07:50:50.344Z,5.62
2024-01-19T07:51:50.648Z,5.62
2024-01-19T07:52:50.003Z,5.62
2024-01-19T07:53:50.432Z,5.62
2024-01-19T07:54:50.821Z,5.62
2024-01-19T07:55:50.219Z,5.62
2024-01-19T07:56:50.781Z,5.62
2024-01-19T07:57:49.999Z,5.62
2024-01-19T07:58:50.350Z,5.62
2024-01-19T07:59:51.029Z,5.62
2024-01-19T08:00:50.194Z,5.62
2024-01-19T08:01:50.722Z,5.62
2024-01-19T08:02:50.118Z,5.62
2024-01-19T08:03:50.616Z,5.62
2024-01-19T08:04:49.781Z,5.62
2024-01-19T08:05:50.333Z,5.62
2024-01-19T08:06:50.784Z,5.62
2024-01-19T08:07:50.047Z,5.62
2024-01-19T08:08:50.575Z,5.62
2024-01-19T08:09:49.839Z,5.62
2024-01-19T08:10:50.266Z,5.62
2024-01-19T08:11:50.753Z,5.62
2024-01-19T08:12:49.963Z,5.62
2024-01-19T08:13:50.446Z,11.25
2024-01-19T08:14:49.972Z,11.25
2024-01-19T08:15:50.236Z,11.25
2024-01-19T08:16:49.715Z,11.25
2024-01-19T08:17:50.174Z,16.88
2024-01-19T08:18:50.729Z,16.88
2024-01-19T08:19:49.863Z,11.25
2024-01-19T08:20:50.400Z,11.25
2024-01-19T08:21:49.680Z,11.25
2024-01-19T08:22:50.099Z,11.25
2024-01-19T08:23:49.581Z,11.25
2024-01-19T08:24:49.902Z,11.25
2024-01-19T08:25:50.385Z,11.25
2024-01-19T08:26:49.739Z,11.25
2024-01-19T08:27:50.150Z,11.25
2024-01-19T08:28:49.561Z,11.25
2024-01-19T08:29:50.054Z,11.25
2024-01-19T08:30:50.422Z,16.88
2024-01-19T08:31:49.868Z,16.88
2024-01-19T08:32:50.226Z,16.88
2024-01-19T08:33:49.582Z,16.88
2024-01-19T08:34:49.939Z,16.88
2024-01-19T08:35:50.348Z,16.88
2024-01-19T08:36:49.696Z,16.88
2024-01-19T08:37:50.188Z,16.88
2024-01-19T08:38:49.470Z,22.50
2024-01-19T08:39:49.842Z,22.50
2024-01-19T08:40:50.226Z,22.50
2024-01-19T08:41:49.665Z,22.50
2024-01-19T08:42:50.017Z,22.50
2024-01-19T08:43:49.562Z,16.88
2024-01-19T08:44:49.829Z,16.88
2024-01-19T08:45:49.293Z,16.88
2024-01-19T08:46:49.675Z,16.88
2024-01-19T08:47:49.351Z,22.50
2024-01-19T08:48:49.840Z,22.50
2024-01-19T08:49:50.125Z,22.50
2024-01-19T08:50:49.479Z,22.50
2024-01-19T08:51:49.930Z,22.50
2024-01-19T08:52:49.205Z,22.50
2024-01-19T08:53:49.654Z,22.50
2024-01-19T08:54:50.116Z,28.12
2024-01-19T08:55:49.457Z,28.12
2024-01-19T08:56:55.655Z,28.12
2024-01-19T08:57:50.159Z,33.75
2024-01-19T08:58:49.627Z,33.75
2024-01-19T08:59:50.083Z,39.38
2024-01-19T09:00:49.432Z,39.38
2024-01-19T09:01:49.743Z,33.75
2024-01-19T09:02:57.060Z,33.75
2024-01-19T09:03:50.664Z,33.75
2024-01-19T09:04:50.072Z,33.75
2024-01-19T09:05:49.397Z,33.75
2024-01-19T09:06:49.790Z,28.12
2024-01-19T09:07:49.063Z,28.12
2024-01-19T09:08:49.516Z,28.12
2024-01-19T09:09:49.804Z,28.12
2024-01-19T09:10:49.258Z,28.12
2024-01-19T09:11:49.690Z,28.12
2024-01-19T09:12:49.073Z,28.12
2024-01-19T09:13:49.399Z,28.12
2024-01-19T09:14:49.804Z,28.12
2024-01-19T09:15:49.094Z,33.75
2024-01-19T09:16:49.597Z,39.38
2024-01-19T09:17:49.014Z,45.00
2024-01-19T09:18:49.517Z,50.62
2024-01-19T09:19:49.812Z,56.25
2024-01-19T09:20:49.128Z,61.88
2024-01-19T09:21:49.434Z,61.88
2024-01-19T09:22:48.812Z,56.25
2024-01-19T09:23:49.195Z,45.00
2024-01-19T09:24:49.544Z,45.00
2024-01-19T09:25:48.904Z,45.00
2024-01-19T09:26:49.300Z,45.00
2024-01-19T09:27:49.944Z,39.38
2024-01-19T09:28:49.023Z,39.38
2024-01-19T09:29:49.422Z,39.38
2024-01-19T09:30:48.711Z,39.38
2024-01-19T09:31:49.131Z,39.38
2024-01-19T09:32:49.488Z,45.00
2024-01-19T09:33:48.883Z,45.00
2024-01-19T09:34:49.251Z,45.00
2024-01-19T09:35:49.567Z,45.00
2024-01-19T09:36:48.948Z,45.00
2024-01-19T09:37:49.312Z,45.00
2024-01-19T09:38:48.696Z,45.00
2024-01-19T09:39:49.100Z,45.00
2024-01-19T09:40:49.393Z,39.38
2024-01-19T09:41:48.894Z,39.38
2024-01-19T09:42:49.092Z,39.38
2024-01-19T09:43:48.431Z,39.38
2024-01-19T09:44:48.893Z,33.75
2024-01-19T09:45:49.280Z,33.75
2024-01-19T09:46:49.707Z,33.75
2024-01-19T09:47:49.226Z,33.75
2024-01-19T09:48:49.335Z,28.12
2024-01-19T09:49:48.816Z,28.12
2024-01-19T09:50:49.260Z,28.12
2024-01-19T09:51:48.641Z,28.12
2024-01-19T09:52:48.938Z,33.75
2024-01-19T09:53:49.329Z,33.75
2024-01-19T09:54:48.762Z,33.75
2024-01-19T09:55:49.106Z,39.38
2024-01-19T09:56:48.650Z,39.38
2024-01-19T09:57:48.973Z,39.38
2024-01-19T09:58:48.243Z,39.38
2024-01-19T09:59:48.765Z,39.38
2024-01-19T10:00:49.173Z,39.38
2024-01-19T10:01:48.478Z,39.38
2024-01-19T10:02:48.965Z,39.38
2024-01-19T10:03:48.248Z,39.38
2024-01-19T10:04:48.750Z,39.38
2024-01-19T10:05:49.111Z,39.38
2024-01-19T10:06:48.556Z,45.00
2024-01-19T10:07:48.831Z,45.00
2024-01-19T10:08:48.163Z,50.62
2024-01-19T10:09:50.787Z,50.62
2024-01-19T10:10:48.912Z,50.62
2024-01-19T10:11:48.283Z,45.00
2024-01-19T10:12:48.709Z,45.00
2024-01-19T10:13:48.048Z,45.00
2024-01-19T10:14:48.433Z,39.38
2024-01-19T10:15:48.931Z,39.38
2024-01-19T10:16:48.208Z,39.38
2024-01-19T10:17:48.671Z,33.75
2024-01-19T10:18:48.114Z,33.75
2024-01-19T10:19:48.419Z,33.75
2024-01-19T10:20:48.919Z,33.75
2024-01-19T10:21:48.277Z,39.38
2024-01-19T10:22:48.565Z,39.38
2024-01-19T10:23:47.992Z,39.38
2024-01-19T10:24:49.687Z,45.00
2024-01-19T10:25:48.748Z,45.00
2024-01-19T10:26:48.186Z,45.00
2024-01-19T10:27:48.891Z,45.00
2024-01-19T10:28:47.904Z,45.00
2024-01-19T10:29:48.289Z,45.00
2024-01-19T10:30:48.714Z,45.00
2024-01-19T10:31:48.035Z,45.00
2024-01-19T10:32:48.516Z,45.00
2024-01-19T10:33:48.171Z,45.00
2024-01-19T10:34:48.217Z,50.62
2024-01-19T10:35:48.601Z,50.62
2024-01-19T10:36:47.962Z,50.62
2024-01-19T10:37:48.433Z,50.62
2024-01-19T10:38:49.020Z,56.25
2024-01-19T10:39:48.083Z,56.25
2024-01-19T10:40:48.572Z,56.25
2024-01-19T10:41:47.879Z,56.25
2024-01-19T10:42:48.227Z,56.25
2024-01-19T10:43:48.632Z,61.88
2024-01-19T10:44:48.078Z,61.88
2024-01-19T10:45:48.318Z,61.88
2024-01-19T10:46:47.681Z,61.88
2024-01-19T10:47:48.144Z,61.88
2024-01-19T10:48:48.685Z,61.88
2024-01-19T10:49:47.714Z,61.88
2024-01-19T10:50:48.071Z,61.88
2024-01-19T10:51:48.464Z,61.88
2024-01-19T10:52:47.741Z,56.25
2024-01-19T10:53:48.114Z,56.25
2024-01-19T10:54:48.514Z,61.88
2024-01-19T10:55:47.942Z,61.88
2024-01-19T10:56:48.393Z,56.25
2024-01-19T10:57:47.503Z,50.62
2024-01-19T10:58:47.924Z,50.62
2024-01-19T10:59:48.243Z,56.25
2024-01-19T11:00:47.606Z,56.25
2024-01-19T11:01:48.068Z,56.25
2024-01-19T11:02:48.439Z,56.25
2024-01-19T11:03:47.625Z,61.88
2024-01-19T11:04:47.977Z,61.88
2024-01-19T11:05:48.543Z,61.88
2024-01-19T11:06:47.795Z,67.50
2024-01-19T11:07:48.071Z,67.50
2024-01-19T11:08:47.366Z,73.12
2024-01-19T11:09:47.701Z,78.75
2024-01-19T11:10:48.131Z,78.75
2024-01-19T11:11:47.532Z,78.75
2024-01-19T11:12:47.797Z,73.12
2024-01-19T11:13:48.204Z,73.12
2024-01-19T11:14:47.529Z,73.12
2024-01-19T11:15:48.885Z,73.12
2024-01-19T11:16:48.235Z,78.75
2024-01-19T11:17:47.663Z,78.75
2024-01-19T11:18:48.334Z,73.12
2024-01-19T11:19:47.339Z,67.50
2024-01-19T11:20:47.619Z,67.50
2024-01-19T11:21:47.939Z,67.50
2024-01-19T11:22:47.236Z,61.88
2024-01-19T11:23:47.620Z,61.88
2024-01-19T11:24:48.062Z,67.50
2024-01-19T11:25:47.311Z,67.50
2024-01-19T11:26:47.799Z,67.50
2024-01-19T11:27:48.057Z,61.88
2024-01-19T11:28:51.784Z,61.88
2024-01-19T11:29:49.166Z,56.25
2024-01-19T11:30:47.076Z,56.25
2024-01-19T11:31:47.430Z,56.25
2024-01-19T11:32:47.780Z,56.25
2024-01-19T11:33:47.241Z,56.25
2024-01-19T11:34:47.460Z,61.88
2024-01-19T11:35:47.838Z,61.88
2024-01-19T11:36:47.109Z,67.50
2024-01-19T11:37:47.461Z,73.12
2024-01-19T11:38:47.915Z,73.12
2024-01-19T11:39:47.192Z,73.12
2024-01-19T11:40:47.517Z,78.75
2024-01-19T11:41:48.181Z,78.75
2024-01-19T11:42:47.203Z,73.12
2024-01-19T11:43:47.589Z,73.12
2024-01-19T11:44:47.188Z,73.12
2024-01-19T11:45:47.299Z,67.50
2024-01-19T11:46:47.694Z,67.50
2024-01-19T11:47:47.237Z,67.50
2024-01-19T11:48:47.652Z,73.12
2024-01-19T11:49:47.847Z,73.12
2024-01-19T11:50:47.225Z,67.50
2024-01-19T11:51:47.471Z,61.88
2024-01-19T11:52:47.020Z,56.25
2024-01-19T11:53:47.308Z,56.25
2024-01-19T11:54:47.599Z,50.62
2024-01-19T11:55:47.174Z,50.62
2024-01-19T11:56:47.286Z,45.00
2024-01-19T11:57:47.684Z,39.38
2024-01-19T11:58:47.091Z,39.38
2024-01-19T11:59:47.530Z,39.38
2024-01-19T12:00:46.732Z,39.38
2024-01-19T12:01:47.129Z,39.38
2024-01-19T12:02:47.556Z,45.00
2024-01-19T12:03:46.856Z,45.00
2024-01-19T12:04:47.210Z,45.00
2024-01-19T12:05:47.859Z,45.00
2024-01-19T12:06:47.027Z,45.00
2024-01-19T12:07:47.332Z,45.00
2024-01-19T12:08:46.694Z,45.00
2024-01-19T12:09:47.147Z,50.62
2024-01-19T12:10:47.483Z,50.62
2024-01-19T12:11:46.908Z,50.62
2024-01-19T12:12:47.207Z,50.62
2024-01-19T12:13:52.032Z,50.62
2024-01-19T12:14:47.999Z,50.62
2024-01-19T12:15:47.402Z,50.62
2024-01-19T12:16:46.660Z,50.62
2024-01-19T12:17:47.235Z,50.62
2024-01-19T12:18:47.529Z,56.25
2024-01-19T12:19:46.773Z,56.25
2024-01-19T12:20:47.140Z,61.88
2024-01-19T12:21:46.480Z,61.88
2024-01-19T12:22:46.976Z,67.50
2024-01-19T12:23:47.314Z,67.50
2024-01-19T12:24:46.650Z,67.50
2024-01-19T12:25:46.990Z,67.50
2024-01-19T12:26:46.316Z,67.50
2024-01-19T12:27:46.796Z,67.50
2024-01-19T12:28:47.157Z,67.50
2024-01-19T12:29:46.522Z,67.50
2024-01-19T12:30:46.821Z,67.50
2024-01-19T12:31:47.237Z,73.12
2024-01-19T12:32:46.597Z,73.12
2024-01-19T12:33:46.955Z,67.50
2024-01-19T12:34:46.286Z,67.50
2024-01-19T12:35:46.761Z,67.50
2024-01-19T12:36:46.952Z,67.50
2024-01-19T12:37:46.408Z,67.50
2024-01-19T12:38:46.689Z,67.50
2024-01-19T12:39:47.090Z,67.50
2024-01-19T12:40:46.417Z,67.50
2024-01-19T12:41:46.979Z,61.88
2024-01-19T12:42:47.203Z,67.50
2024-01-19T12:43:46.532Z,61.88
2024-01-19T12:44:46.917Z,61.88
2024-01-19T12:45:46.250Z,61.88
2024-01-19T12:46:46.727Z,61.88
2024-01-19T12:47:47.210Z,61.88
2024-01-19T12:48:46.374Z,67.50
2024-01-19T12:49:53.542Z,67.50
2024-01-19T12:50:47.041Z,61.88
2024-01-19T12:51:46.358Z,61.88
2024-01-19T12:52:46.834Z,61.88
2024-01-19T12:53:46.153Z,61.88
2024-01-19T12:54:46.428Z,61.88
2024-01-19T12:55:46.853Z,61.88
2024-01-19T12:56:46.202Z,61.88
2024-01-19T12:57:46.528Z,61.88
2024-01-19T12:58:47.040Z,61.88
2024-01-19T12:59:46.218Z,61.88
2024-01-19T13:00:46.637Z,56.25
2024-01-19T13:01:46.027Z,50.62
2024-01-19T13:02:46.373Z,50.62
2024-01-19T13:03:46.650Z,56.25
2024-01-19T13:04:46.063Z,56.25
2024-01-19T13:05:46.410Z,56.25
2024-01-19T13:06:46.798Z,50.62
2024-01-19T13:07:46.138Z,50.62
2024-01-19T13:08:46.437Z,50.62